Latest Coastal Weather Observations for Low Rocky Point

IDT60701

Issued at 3:12 am EDT Saturday 19 October 2019 (issued every 10 minutes, with the page automatically refreshed every 10 minutes)

About coastal observations | Map of coastal stations | Coastal observations for TAS | Marine services | Other Formats
Station Details ID: 097080 Name: LOW ROCKY POINT Lat: -42.98 Lon: 145.50 Height: 34.0 m
Data from the previous 72 hours. | See also: Recent months at Low Rocky Point
Date/Time
EDT
Wind Sea
Height
m
Swell Vis
km
Cloud Weather Temp
°C
Press
hPa
Rain since
9am
mm
Dir  Spd
kts
Gust
kts
Height
m
Period
s
Dir
19/03:00am NW 28 34 - - - - - - - 8.1 1002.6 -
19/02:53am WNW 27 37 - - - - - - - 8.4 1002.6 -
19/02:30am NW 28 35 - - - - - - - 7.6 1002.8 -
19/02:00am WNW 26 39 - - - - - - - 8.0 1002.8 -
19/01:51am NW 25 39 - - - - - - - 8.4 1003.0 -
19/01:30am NW 24 32 - - - - - - - 7.9 1003.3 -
19/01:16am NW 26 35 - - - - - - - 7.9 1003.4 -
19/01:07am WNW 34 44 - - - - - - - 7.7 1003.4 -
19/01:00am WNW 36 45 - - - - - - - 8.1 1003.2 -
19/12:57am WNW 34 45 - - - - - - - 8.2 1003.2 -
19/12:33am WNW 27 38 - - - - - - - 9.1 1003.3 -
19/12:30am WNW 25 30 - - - - - - - 9.2 1003.3 -
19/12:23am WNW 27 37 - - - - - - - 8.8 1003.3 -
19/12:12am WNW 30 36 - - - - - - - 9.2 1003.1 -
19/12:02am WNW 22 32 - - - - - - - 9.1 1003.3 -
19/12:00am WNW 22 27 - - - - - - - 8.9 1003.4 -
 
Date/Time
EDT
Wind Sea
Height
m
Swell Vis
km
Cloud Weather Temp
°C
Press
hPa
Rain since
9am
mm
Dir  Spd
kts
Gust
kts
Height
m
Period
s
Dir
18/11:30pm WNW 24 30 - - - - - - - 8.6 1003.4 -
18/11:00pm WNW 27 33 - - - - - - - 8.5 1003.5 -
18/10:39pm WNW 28 45 - - - - - - - 8.5 1003.2 -
18/10:30pm WNW 25 32 - - - - - - - 8.9 1003.3 -
18/10:00pm W 32 39 - - - - - - - 8.9 1002.9 -
18/09:54pm W 33 43 - - - - - - - 8.9 1002.8 -
18/09:30pm WNW 33 41 - - - - - - - 9.1 1002.4 -
18/09:01pm WNW 31 42 - - - - - - - 8.7 1001.9 -
18/09:00pm WNW 31 38 - - - - - - - 8.7 1001.9 -
18/08:30pm WNW 29 36 - - - - - - - 9.5 1001.2 -
18/08:00pm WNW 32 38 - - - - - - - 9.2 1000.8 -
18/07:30pm WNW 33 41 - - - - - - - 8.8 1000.2 -
18/07:00pm W 39 55 - - - - - - - 7.4 999.8 -
18/06:59pm W 41 55 - - - - - - - 7.4 999.9 -
18/06:53pm WNW 43 55 - - - - - - - 8.1 999.7 -
18/06:49pm WNW 38 52 - - - - - - - 9.3 999.0 -
18/06:45pm WNW 35 46 - - - - - - - 9.7 999.1 -
18/06:30pm WNW 33 40 - - - - - - - 9.7 998.9 -
18/06:00pm WNW 32 40 - - - - - - - 10.2 998.4 -
18/05:30pm WNW 35 45 - - - - - - - 10.1 998.3 -
18/05:09pm WNW 35 45 - - - - - - - 10.3 997.9 -
18/05:00pm WNW 34 42 - - - - - - - 10.6 998.2 -
18/04:30pm WNW 36 45 - - - - - - - 10.3 998.0 -
18/04:00pm NW 35 53 - - - - - - - 10.2 997.7 -
18/03:52pm NW 34 44 - - - - - - - 11.3 997.7 -
18/03:30pm NW 32 41 - - - - - - - 11.5 998.0 -
18/03:09pm NW 33 43 - - - - - - - 11.0 998.2 -
18/03:00pm NW 34 42 - - - - - - - 10.8 998.1 -
18/02:47pm NW 30 42 - - - - - - - 10.8 998.3 -
18/02:30pm NW 31 39 - - - - - - - 10.5 998.4 -
18/02:00pm WNW 30 35 - - - - - - - 9.9 998.5 -
18/01:30pm NW 34 57 - - - - - - - 9.4 998.4 -
18/01:28pm NW 34 57 - - - - - - - 9.5 998.3 -
18/01:26pm NNW 33 57 - - - - - - - 10.8 997.7 -
18/01:00pm NNW 29 45 - - - - - - - 11.1 997.9 -
18/12:30pm NNW 35 45 - - - - - - - 11.3 998.4 -
18/12:00pm NNW 34 46 - - - - - - - 11.6 999.3 -
18/11:30am NNW 33 46 - - - - - - - 12.7 999.8 -
18/11:00am NNW 34 46 - - - - - - - 13.0 1000.3 -
18/10:30am NNW 32 44 - - - - - - - 13.1 1000.8 -
18/10:00am NNW 28 39 - - - - - - - 12.7 1001.1 -
18/09:30am NNW 31 41 - - - - - - - 12.3 1001.6 -
18/09:24am NNW 31 41 - - - - - - - 12.2 1001.7 -
18/09:22am NNW 29 41 - - - - - - - 12.2 1001.7 -
18/09:00am NNW 22 33 - - - - - - - 11.8 1002.2 -
18/08:30am NNW 23 36 - - - - - - - 10.8 1002.8 -
18/08:00am N 21 33 - - - - - - - 9.7 1003.3 -
18/07:48am N 21 31 - - - - - - - 9.8 1003.3 -
18/07:30am N 17 25 - - - - - - - 9.3 1003.9 -
18/07:10am N 17 27 - - - - - - - 9.4 1004.0 -
18/07:00am N 18 26 - - - - - - - 9.9 1004.1 -
18/06:30am NNW 19 28 - - - - - - - 9.9 1004.2 -
18/06:23am NNW 18 28 - - - - - - - 9.8 1004.4 -
18/06:00am NNW 21 29 - - - - - - - 9.9 1004.5 -
18/05:51am NNW 22 32 - - - - - - - 10.0 1004.5 -
18/05:30am NNW 19 40 - - - - - - - 10.4 1004.7 -
18/05:04am NNW 27 38 - - - - - - - 10.2 1004.9 -
18/05:00am NW 28 38 - - - - - - - 10.3 1005.0 -
18/04:30am NW 28 40 - - - - - - - 10.6 1005.7 -
18/04:00am NW 32 43 - - - - - - - 10.9 1005.8 -
18/03:47am NW 29 39 - - - - - - - 11.6 1005.8 -
18/03:30am NW 30 38 - - - - - - - 11.6 1006.2 -
18/03:19am NW 29 39 - - - - - - - 11.3 1006.3 -
18/03:00am NW 31 38 - - - - - - - 11.4 1006.7 -
18/02:43am NW 26 36 - - - - - - - 11.2 1006.6 -
18/02:30am NW 26 33 - - - - - - - 11.3 1006.9 -
18/02:00am NW 25 33 - - - - - - - 11.3 1007.1 -
18/01:52am NW 20 31 - - - - - - - 10.7 1007.3 -
18/01:30am NW 24 29 - - - - - - - 10.5 1007.8 -
18/01:15am NNW 15 29 - - - - - - - 10.6 1008.1 -
18/01:00am N 12 17 - - - - - - - 10.3 1008.1 -
18/12:49am NNW 17 25 - - - - - - - 11.1 1008.1 -
18/12:30am NW 23 28 - - - - - - - 11.7 1008.6 -
18/12:00am NW 19 25 - - - - - - - 11.4 1008.9 -
 
Date/Time
EDT
Wind Sea
Height
m
Swell Vis
km
Cloud Weather Temp
°C
Press
hPa
Rain since
9am
mm
Dir  Spd
kts
Gust
kts
Height
m
Period
s
Dir
17/11:30pm N 12 17 - - - - - - - 9.7 1009.1 -
17/11:00pm N 11 14 - - - - - - - 9.1 1009.2 -
17/10:30pm N 11 14 - - - - - - - 9.2 1009.2 -
17/10:00pm N 9 13 - - - - - - - 9.6 1009.3 -
17/09:30pm NW 14 17 - - - - - - - 11.2 1009.1 -
17/09:00pm NW 11 13 - - - - - - - 10.9 1009.1 -
17/08:30pm WNW 9 11 - - - - - - - 10.8 1008.8 -
17/08:00pm WNW 8 9 - - - - - - - 10.8 1008.4 -
17/07:30pm W 6 8 - - - - - - - 11.4 1008.0 -
17/07:00pm WSW 5 7 - - - - - - - 12.5 1007.8 -
17/06:30pm WSW 6 9 - - - - - - - 13.1 1007.6 -
17/06:00pm SW 7 9 - - - - - - - 14.0 1007.2 -
17/05:30pm SSW 8 11 - - - - - - - 14.0 1007.0 -
17/05:00pm S 8 10 - - - - - - - 14.2 1006.7 -
17/04:30pm S 9 11 - - - - - - - 14.4 1006.3 -
17/04:00pm S 9 12 - - - - - - - 14.6 1006.1 -
17/03:30pm S 11 14 - - - - - - - 14.3 1006.1 -
17/03:00pm S 11 15 - - - - - - - 15.2 1006.1 -
17/02:30pm S 12 15 - - - - - - - 15.2 1006.4 -
17/02:00pm S 13 16 - - - - - - - 14.8 1006.3 -
17/01:30pm S 12 14 - - - - - - - 15.5 1006.1 -
17/01:00pm S 11 15 - - - - - - - 14.7 1006.1 -
17/12:30pm S 10 13 - - - - - - - 15.4 1006.0 -
17/12:00pm S 10 13 - - - - - - - 14.6 1006.2 -
17/11:30am S 8 10 - - - - - - - 14.2 1006.3 -
17/11:00am S 8 10 - - - - - - - 13.3 1006.2 -
17/10:30am SSE 8 10 - - - - - - - 12.9 1006.4 -
17/10:00am SSE 8 10 - - - - - - - 12.9 1006.3 -
17/09:30am SE 9 11 - - - - - - - 12.7 1006.2 -
17/09:00am ESE 7 9 - - - - - - - 12.2 1006.1 -
17/08:30am ESE 6 8 - - - - - - - 10.7 1006.0 -
17/08:00am E 5 7 - - - - - - - 9.6 1005.8 -
17/07:30am NE 6 8 - - - - - - - 7.3 1005.6 -
17/07:00am E 5 7 - - - - - - - 6.2 1005.4 -
17/06:30am NE 8 9 - - - - - - - 5.7 1005.4 -
17/06:00am ENE 6 7 - - - - - - - 5.3 1005.1 -
17/05:30am ENE 6 7 - - - - - - - 5.5 1005.2 -
17/05:00am ENE 6 8 - - - - - - - 6.1 1005.4 -
17/04:30am NE 6 8 - - - - - - - 5.9 1005.7 -
17/04:00am NE 7 8 - - - - - - - 6.1 1006.0 -
17/03:30am NE 7 8 - - - - - - - 6.3 1006.2 -
17/03:00am NE 9 10 - - - - - - - 6.5 1006.5 -
17/02:30am NE 6 8 - - - - - - - 6.6 1006.7 -
17/02:00am NNE 8 9 - - - - - - - 6.9 1007.0 -
17/01:30am NE 7 9 - - - - - - - 7.2 1007.3 -
17/01:00am NNE 7 9 - - - - - - - 7.5 1007.3 -
17/12:30am NNE 7 7 - - - - - - - 7.4 1007.5 -
17/12:00am NNE 6 6 - - - - - - - 7.6 1007.7 -
 
Date/Time
EDT
Wind Sea
Height
m
Swell Vis
km
Cloud Weather Temp
°C
Press
hPa
Rain since
9am
mm
Dir  Spd
kts
Gust
kts
Height
m
Period
s
Dir
16/11:30pm NE 8 9 - - - - - - - 7.9 1007.9 -
16/11:00pm NNE 6 7 - - - - - - - 8.5 1008.1 -
16/10:30pm NE 6 8 - - - - - - - 8.5 1008.2 -
16/10:00pm NNE 7 8 - - - - - - - 8.3 1008.3 -
16/09:30pm NNE 5 6 - - - - - - - 8.2 1008.4 -
16/09:00pm NNE 5 6 - - - - - - - 8.3 1008.4 -
16/08:30pm NNW 5 7 - - - - - - - 9.1 1008.2 -
16/08:00pm WNW 7 9 - - - - - - - 10.0 1008.1 -
16/07:30pm WNW 8 10 - - - - - - - 10.8 1008.0 -
16/07:00pm W 10 12 - - - - - - - 11.4 1007.9 -
16/06:30pm WNW 12 14 - - - - - - - 12.0 1007.9 -
16/06:00pm WNW 13 16 - - - - - - - 12.4 1007.8 -
16/05:30pm WNW 13 17 - - - - - - - 12.0 1007.8 -
16/05:00pm WNW 11 16 - - - - - - - 11.6 1007.8 -
16/04:30pm WNW 16 21 - - - - - - - 11.7 1007.9 -
16/04:00pm WNW 16 19 - - - - - - - 11.6 1007.8 -
16/03:30pm WNW 18 19 - - - - - - - 11.8 1007.9 -
16/03:00pm WNW 21 28 - - - - - - - 12.0 1008.2 -
16/02:53pm WNW 17 28 - - - - - - - 12.5 1008.3 -
16/02:30pm WNW 15 17 - - - - - - - 14.5 1008.4 -
16/02:00pm WNW 11 14 - - - - - - - 14.3 1008.6 -
16/01:30pm WNW 8 10 - - - - - - - 13.5 1008.9 -
16/01:00pm NW 10 12 - - - - - - - 14.3 1009.0 -
16/12:30pm NW 9 11 - - - - - - - 14.1 1009.4 -
16/12:00pm WNW 10 14 - - - - - - - 12.7 1009.9 -
16/11:30am NW 10 13 - - - - - - - 12.4 1010.2 -
16/11:00am NNW 11 16 - - - - - - - 10.9 1010.7 -
16/10:30am NNW 13 17 - - - - - - - 11.2 1010.7 -
16/10:00am NW 14 19 - - - - - - - 10.5 1010.7 -
16/09:30am NNW 10 14 - - - - - - - 11.4 1010.9 -
16/09:00am NNW 9 12 - - - - - - - 11.2 1011.1 -
16/08:30am NNW 9 12 - - - - - - - 9.4 1011.2 -
16/08:00am N 10 12 - - - - - - - 8.5 1011.4 -
16/07:30am N 9 11 - - - - - - - 7.2 1011.4 -
16/07:00am N 8 10 - - - - - - - 6.9 1011.3 -
16/06:30am N 10 13 - - - - - - - 7.0 1011.2 -
16/06:00am N 10 12 - - - - - - - 6.8 1011.0 -
16/05:30am N 10 12 - - - - - - - 7.0 1011.0 -
16/05:00am N 9 12 - - - - - - - 7.2 1011.1 -
16/04:30am N 10 12 - - - - - - - 7.4 1011.2 -
16/04:00am N 7 11 - - - - - - - 7.6 1011.3 -
16/03:30am NW 5 8 - - - - - - - 8.1 1011.4 -

Other formats

Comma delimited format used in spreadsheet applications
http://www.bom.gov.au/fwo/IDT60701/IDT60701.95961.axf

JavaScript Object Notation format (JSON) in row-major order
http://www.bom.gov.au/fwo/IDT60701/IDT60701.95961.json

Data quality

Most of these data are generated automatically and are frequently updated. Quality checks on data are not normally performed. It is possible for incorrect values to appear. Refer to information at About Latest Weather Observations and please check the disclaimer before using these data.